Cudworth, Canada
Current Conditions -  °F | °C
As of 4:00 AM on Tuesday 21 Oct 2014 (Local Time) from CYXE Reporting Station
Clear Clear  
Wind Chill: 40°   Ceiling: Unl
Heat Index: 45°   Visibility: 15mi
Dew Point: 39°   Wind: 8mph
Humidity: 81%   Direction: 180°S
Pressure: 29.62"   Gusts: NA
Location:  52.48°N, 105.72°W
Report Text: CYXE 211000Z 18007KT 15SM SKC 07/04 A2962 RMK SLP037
Loading
Personal Weather Stations






























Interactive Weather Map
Tropical Storm Tracking
New forecast layout! Learn more

10-Day Weather Forecast

Advertisements
Track Severe Weather on mobile